sensor_id;sensor_type;location;lat;lon;timestamp;temperature;humidity
39079;DHT22;24829;49.208;12.080;2022-09-25T00:01:08;11.50;99.90
39079;DHT22;24829;49.208;12.080;2022-09-25T00:03:34;11.40;99.90
39079;DHT22;24829;49.208;12.080;2022-09-25T00:06:20;11.40;99.90
39079;DHT22;24829;49.208;12.080;2022-09-25T00:08:46;11.40;99.90
39079;DHT22;24829;49.208;12.080;2022-09-25T00:11:21;11.40;99.90
39079;DHT22;24829;49.208;12.080;2022-09-25T00:13:47;11.40;99.90
39079;DHT22;24829;49.208;12.080;2022-09-25T00:16:16;11.40;99.90
39079;DHT22;24829;49.208;12.080;2022-09-25T00:18:43;11.40;99.90
39079;DHT22;24829;49.208;12.080;2022-09-25T00:21:27;11.50;99.90
39079;DHT22;24829;49.208;12.080;2022-09-25T00:23:58;11.50;99.90
39079;DHT22;24829;49.208;12.080;2022-09-25T00:26:26;11.50;99.90
39079;DHT22;24829;49.208;12.080;2022-09-25T00:28:53;11.50;99.90
39079;DHT22;24829;49.208;12.080;2022-09-25T00:31:20;11.50;99.90
39079;DHT22;24829;49.208;12.080;2022-09-25T00:33:52;11.50;99.90
39079;DHT22;24829;49.208;12.080;2022-09-25T00:36:18;11.50;99.90
39079;DHT22;24829;49.208;12.080;2022-09-25T00:38:44;11.60;99.90
39079;DHT22;24829;49.208;12.080;2022-09-25T00:41:13;11.60;99.90
39079;DHT22;24829;49.208;12.080;2022-09-25T00:43:45;11.60;99.90
39079;DHT22;24829;49.208;12.080;2022-09-25T00:46:17;11.60;99.90
39079;DHT22;24829;49.208;12.080;2022-09-25T00:49:03;11.60;99.90
39079;DHT22;24829;49.208;12.080;2022-09-25T00:51:41;11.60;99.90
39079;DHT22;24829;49.208;12.080;2022-09-25T00:54:13;11.60;99.90
39079;DHT22;24829;49.208;12.080;2022-09-25T00:56:43;11.60;99.90
39079;DHT22;24829;49.208;12.080;2022-09-25T00:59:20;11.60;99.90
39079;DHT22;24829;49.208;12.080;2022-09-25T01:01:47;11.60;99.90
39079;DHT22;24829;49.208;12.080;2022-09-25T01:04:13;11.60;99.90
39079;DHT22;24829;49.208;12.080;2022-09-25T01:06:39;11.70;99.90
39079;DHT22;24829;49.208;12.080;2022-09-25T01:09:05;11.60;99.90
39079;DHT22;24829;49.208;12.080;2022-09-25T01:11:31;11.60;99.90
39079;DHT22;24829;49.208;12.080;2022-09-25T01:13:59;11.60;99.90
39079;DHT22;24829;49.208;12.080;2022-09-25T01:16:37;11.60;99.90
39079;DHT22;24829;49.208;12.080;2022-09-25T01:22:10;11.60;99.90
39079;DHT22;24829;49.208;12.080;2022-09-25T01:30:13;11.60;99.90
39079;DHT22;24829;49.208;12.080;2022-09-25T01:43:37;11.50;99.90
39079;DHT22;24829;49.208;12.080;2022-09-25T01:46:17;11.50;99.90
39079;DHT22;24829;49.208;12.080;2022-09-25T01:48:45;11.50;99.90
39079;DHT22;24829;49.208;12.080;2022-09-25T01:51:23;11.40;99.90
39079;DHT22;24829;49.208;12.080;2022-09-25T01:53:53;11.40;99.90
39079;DHT22;24829;49.208;12.080;2022-09-25T01:56:32;11.40;99.90
39079;DHT22;24829;49.208;12.080;2022-09-25T01:59:19;11.40;99.90
39079;DHT22;24829;49.208;12.080;2022-09-25T02:01:50;11.40;99.90
39079;DHT22;24829;49.208;12.080;2022-09-25T02:04:23;11.50;99.90
39079;DHT22;24829;49.208;12.080;2022-09-25T02:06:50;11.50;99.90
39079;DHT22;24829;49.208;12.080;2022-09-25T02:09:25;11.50;99.90
39079;DHT22;24829;49.208;12.080;2022-09-25T02:11:56;11.50;99.90
39079;DHT22;24829;49.208;12.080;2022-09-25T02:15:04;11.50;99.90
39079;DHT22;24829;49.208;12.080;2022-09-25T02:17:39;11.50;99.90
39079;DHT22;24829;49.208;12.080;2022-09-25T02:20:26;11.50;99.90
39079;DHT22;24829;49.208;12.080;2022-09-25T02:23:03;11.50;99.90
39079;DHT22;24829;49.208;12.080;2022-09-25T02:25:37;11.50;99.90
39079;DHT22;24829;49.208;12.080;2022-09-25T02:28:04;11.50;99.90
39079;DHT22;24829;49.208;12.080;2022-09-25T02:30:29;11.50;99.90
39079;DHT22;24829;49.208;12.080;2022-09-25T02:32:55;11.50;99.90
39079;DHT22;24829;49.208;12.080;2022-09-25T02:35:23;11.50;99.90
39079;DHT22;24829;49.208;12.080;2022-09-25T02:37:49;11.50;99.90
39079;DHT22;24829;49.208;12.080;2022-09-25T02:40:14;11.50;99.90
39079;DHT22;24829;49.208;12.080;2022-09-25T02:42:51;11.50;99.90
39079;DHT22;24829;49.208;12.080;2022-09-25T02:48:41;11.50;99.90
39079;DHT22;24829;49.208;12.080;2022-09-25T02:51:19;11.50;99.90
39079;DHT22;24829;49.208;12.080;2022-09-25T02:54:09;11.50;99.90
39079;DHT22;24829;49.208;12.080;2022-09-25T02:56:50;11.50;99.90
39079;DHT22;24829;49.208;12.080;2022-09-25T02:59:21;11.50;99.90
39079;DHT22;24829;49.208;12.080;2022-09-25T03:01:48;11.50;99.90
39079;DHT22;24829;49.208;12.080;2022-09-25T03:04:16;11.50;99.90
39079;DHT22;24829;49.208;12.080;2022-09-25T03:06:42;11.50;99.90
39079;DHT22;24829;49.208;12.080;2022-09-25T03:09:09;11.50;99.90
39079;DHT22;24829;49.208;12.080;2022-09-25T03:11:36;11.50;99.90
39079;DHT22;24829;49.208;12.080;2022-09-25T03:14:08;11.50;99.90
39079;DHT22;24829;49.208;12.080;2022-09-25T03:16:43;11.50;99.90
39079;DHT22;24829;49.208;12.080;2022-09-25T03:19:11;11.60;99.90
39079;DHT22;24829;49.208;12.080;2022-09-25T03:21:37;11.60;99.90
39079;DHT22;24829;49.208;12.080;2022-09-25T03:24:02;11.60;99.90
39079;DHT22;24829;49.208;12.080;2022-09-25T03:26:28;11.60;99.90
39079;DHT22;24829;49.208;12.080;2022-09-25T03:28:54;11.60;99.90
39079;DHT22;24829;49.208;12.080;2022-09-25T03:31:20;11.60;99.90
39079;DHT22;24829;49.208;12.080;2022-09-25T03:33:46;11.60;99.90
39079;DHT22;24829;49.208;12.080;2022-09-25T03:36:21;11.60;99.90
39079;DHT22;24829;49.208;12.080;2022-09-25T03:38:49;11.60;99.90
39079;DHT22;24829;49.208;12.080;2022-09-25T03:41:18;11.60;99.90
39079;DHT22;24829;49.208;12.080;2022-09-25T03:43:46;11.60;99.90
39079;DHT22;24829;49.208;12.080;2022-09-25T03:46:17;11.60;99.90
39079;DHT22;24829;49.208;12.080;2022-09-25T03:48:43;11.50;99.90
39079;DHT22;24829;49.208;12.080;2022-09-25T03:51:09;11.50;99.90
39079;DHT22;24829;49.208;12.080;2022-09-25T03:53:36;11.40;99.90
39079;DHT22;24829;49.208;12.080;2022-09-25T03:56:04;11.30;99.90
39079;DHT22;24829;49.208;12.080;2022-09-25T03:58:31;11.20;99.90
39079;DHT22;24829;49.208;12.080;2022-09-25T04:00:57;11.20;99.90
39079;DHT22;24829;49.208;12.080;2022-09-25T04:03:24;11.10;99.90
39079;DHT22;24829;49.208;12.080;2022-09-25T04:05:53;11.10;99.90
39079;DHT22;24829;49.208;12.080;2022-09-25T04:08:19;11.00;99.90
39079;DHT22;24829;49.208;12.080;2022-09-25T04:10:45;11.10;99.90
39079;DHT22;24829;49.208;12.080;2022-09-25T04:13:10;11.20;99.90
39079;DHT22;24829;49.208;12.080;2022-09-25T04:15:37;11.30;99.90
39079;DHT22;24829;49.208;12.080;2022-09-25T04:18:04;11.30;99.90
39079;DHT22;24829;49.208;12.080;2022-09-25T04:20:30;11.40;99.90
39079;DHT22;24829;49.208;12.080;2022-09-25T04:22:55;11.50;99.90
39079;DHT22;24829;49.208;12.080;2022-09-25T04:25:21;11.50;99.90
39079;DHT22;24829;49.208;12.080;2022-09-25T04:27:50;11.50;99.90
39079;DHT22;24829;49.208;12.080;2022-09-25T04:30:16;11.50;99.90
39079;DHT22;24829;49.208;12.080;2022-09-25T04:32:41;11.50;99.90
39079;DHT22;24829;49.208;12.080;2022-09-25T04:35:26;11.50;99.90
39079;DHT22;24829;49.208;12.080;2022-09-25T04:37:51;11.50;99.90
39079;DHT22;24829;49.208;12.080;2022-09-25T04:40:17;11.50;99.90
39079;DHT22;24829;49.208;12.080;2022-09-25T04:42:42;11.50;99.90
39079;DHT22;24829;49.208;12.080;2022-09-25T04:45:08;11.50;99.90
39079;DHT22;24829;49.208;12.080;2022-09-25T04:47:34;11.50;99.90
39079;DHT22;24829;49.208;12.080;2022-09-25T04:49:59;11.60;99.90
39079;DHT22;24829;49.208;12.080;2022-09-25T04:52:25;11.50;99.90
39079;DHT22;24829;49.208;12.080;2022-09-25T04:54:50;11.60;99.90
39079;DHT22;24829;49.208;12.080;2022-09-25T04:57:19;11.60;99.90
39079;DHT22;24829;49.208;12.080;2022-09-25T04:59:45;11.60;99.90
39079;DHT22;24829;49.208;12.080;2022-09-25T05:02:11;11.60;99.90
39079;DHT22;24829;49.208;12.080;2022-09-25T05:04:37;11.60;99.90
39079;DHT22;24829;49.208;12.080;2022-09-25T05:07:03;11.60;99.90
39079;DHT22;24829;49.208;12.080;2022-09-25T05:09:29;11.60;99.90
39079;DHT22;24829;49.208;12.080;2022-09-25T05:11:54;11.50;99.90
39079;DHT22;24829;49.208;12.080;2022-09-25T05:14:21;11.60;99.90
39079;DHT22;24829;49.208;12.080;2022-09-25T05:16:47;11.60;99.90
39079;DHT22;24829;49.208;12.080;2022-09-25T05:19:13;11.60;99.90
39079;DHT22;24829;49.208;12.080;2022-09-25T05:21:39;11.60;99.90
39079;DHT22;24829;49.208;12.080;2022-09-25T05:24:05;11.60;99.90
39079;DHT22;24829;49.208;12.080;2022-09-25T05:26:32;11.60;99.90
39079;DHT22;24829;49.208;12.080;2022-09-25T05:28:59;11.60;99.90
39079;DHT22;24829;49.208;12.080;2022-09-25T05:31:25;11.60;99.90
39079;DHT22;24829;49.208;12.080;2022-09-25T05:33:51;11.60;99.90
39079;DHT22;24829;49.208;12.080;2022-09-25T05:36:18;11.60;99.90
39079;DHT22;24829;49.208;12.080;2022-09-25T05:38:45;11.60;99.90
39079;DHT22;24829;49.208;12.080;2022-09-25T05:41:11;11.60;99.90
39079;DHT22;24829;49.208;12.080;2022-09-25T05:43:41;11.60;99.90
39079;DHT22;24829;49.208;12.080;2022-09-25T05:46:08;11.60;99.90
39079;DHT22;24829;49.208;12.080;2022-09-25T05:48:35;11.70;99.90
39079;DHT22;24829;49.208;12.080;2022-09-25T05:51:02;11.70;99.90
39079;DHT22;24829;49.208;12.080;2022-09-25T05:53:28;11.70;99.90
39079;DHT22;24829;49.208;12.080;2022-09-25T05:55:56;11.70;99.90
39079;DHT22;24829;49.208;12.080;2022-09-25T05:58:23;11.60;99.90
39079;DHT22;24829;49.208;12.080;2022-09-25T06:00:49;11.60;99.90
39079;DHT22;24829;49.208;12.080;2022-09-25T06:03:15;11.60;99.90
39079;DHT22;24829;49.208;12.080;2022-09-25T06:05:40;11.60;99.90
39079;DHT22;24829;49.208;12.080;2022-09-25T06:08:07;11.50;99.90
39079;DHT22;24829;49.208;12.080;2022-09-25T06:10:33;11.60;99.90
39079;DHT22;24829;49.208;12.080;2022-09-25T06:13:00;11.60;99.90
39079;DHT22;24829;49.208;12.080;2022-09-25T06:15:27;11.60;99.90
39079;DHT22;24829;49.208;12.080;2022-09-25T06:17:56;11.60;99.90
39079;DHT22;24829;49.208;12.080;2022-09-25T06:20:22;11.60;99.90
39079;DHT22;24829;49.208;12.080;2022-09-25T06:22:56;11.60;99.90
39079;DHT22;24829;49.208;12.080;2022-09-25T06:25:22;11.60;99.90
39079;DHT22;24829;49.208;12.080;2022-09-25T06:27:57;11.60;99.90
39079;DHT22;24829;49.208;12.080;2022-09-25T06:30:25;11.60;99.90
39079;DHT22;24829;49.208;12.080;2022-09-25T06:32:58;11.60;99.90
39079;DHT22;24829;49.208;12.080;2022-09-25T06:35:24;11.70;99.90
39079;DHT22;24829;49.208;12.080;2022-09-25T06:37:51;11.70;99.90
39079;DHT22;24829;49.208;12.080;2022-09-25T06:40:17;11.70;99.90
39079;DHT22;24829;49.208;12.080;2022-09-25T06:42:43;11.70;99.90
39079;DHT22;24829;49.208;12.080;2022-09-25T06:45:10;11.80;99.90
39079;DHT22;24829;49.208;12.080;2022-09-25T06:47:36;11.80;99.90
39079;DHT22;24829;49.208;12.080;2022-09-25T06:50:01;11.80;99.90
39079;DHT22;24829;49.208;12.080;2022-09-25T06:52:27;11.80;99.90
39079;DHT22;24829;49.208;12.080;2022-09-25T06:54:52;11.80;99.90
39079;DHT22;24829;49.208;12.080;2022-09-25T06:57:18;11.90;99.90
39079;DHT22;24829;49.208;12.080;2022-09-25T06:59:43;11.90;99.90
39079;DHT22;24829;49.208;12.080;2022-09-25T07:02:09;11.90;99.90
39079;DHT22;24829;49.208;12.080;2022-09-25T07:04:53;12.00;99.90
39079;DHT22;24829;49.208;12.080;2022-09-25T07:07:19;12.00;99.90
39079;DHT22;24829;49.208;12.080;2022-09-25T07:09:45;12.00;99.90
39079;DHT22;24829;49.208;12.080;2022-09-25T07:12:13;12.10;99.90
39079;DHT22;24829;49.208;12.080;2022-09-25T07:14:39;12.10;99.90
39079;DHT22;24829;49.208;12.080;2022-09-25T07:17:06;12.10;99.90
39079;DHT22;24829;49.208;12.080;2022-09-25T07:19:32;12.10;99.90
39079;DHT22;24829;49.208;12.080;2022-09-25T07:21:58;12.20;99.90
39079;DHT22;24829;49.208;12.080;2022-09-25T07:24:23;12.30;99.90
39079;DHT22;24829;49.208;12.080;2022-09-25T07:26:49;12.30;99.90
39079;DHT22;24829;49.208;12.080;2022-09-25T07:29:16;12.30;99.90
39079;DHT22;24829;49.208;12.080;2022-09-25T07:31:42;12.40;99.90
39079;DHT22;24829;49.208;12.080;2022-09-25T07:34:07;12.50;99.90
39079;DHT22;24829;49.208;12.080;2022-09-25T07:36:34;12.60;99.90
39079;DHT22;24829;49.208;12.080;2022-09-25T07:38:59;12.60;99.90
39079;DHT22;24829;49.208;12.080;2022-09-25T07:41:25;12.60;99.90
39079;DHT22;24829;49.208;12.080;2022-09-25T07:43:55;12.70;99.90
39079;DHT22;24829;49.208;12.080;2022-09-25T07:46:25;12.70;99.90
39079;DHT22;24829;49.208;12.080;2022-09-25T07:48:51;12.70;99.90
39079;DHT22;24829;49.208;12.080;2022-09-25T07:51:17;12.70;99.90
39079;DHT22;24829;49.208;12.080;2022-09-25T07:53:43;12.70;99.90
39079;DHT22;24829;49.208;12.080;2022-09-25T07:56:10;12.80;99.90
39079;DHT22;24829;49.208;12.080;2022-09-25T07:58:36;12.80;99.90
39079;DHT22;24829;49.208;12.080;2022-09-25T08:01:05;12.80;99.90
39079;DHT22;24829;49.208;12.080;2022-09-25T08:03:31;12.80;99.90
39079;DHT22;24829;49.208;12.080;2022-09-25T08:06:08;12.80;99.90
39079;DHT22;24829;49.208;12.080;2022-09-25T08:08:36;12.70;99.90
39079;DHT22;24829;49.208;12.080;2022-09-25T08:11:07;12.80;99.90
39079;DHT22;24829;49.208;12.080;2022-09-25T08:13:34;12.80;99.90
39079;DHT22;24829;49.208;12.080;2022-09-25T08:16:02;12.80;99.90
39079;DHT22;24829;49.208;12.080;2022-09-25T08:18:27;12.80;99.90
39079;DHT22;24829;49.208;12.080;2022-09-25T08:20:53;12.90;99.90
39079;DHT22;24829;49.208;12.080;2022-09-25T08:23:18;12.90;99.90
39079;DHT22;24829;49.208;12.080;2022-09-25T08:25:47;12.90;99.90
39079;DHT22;24829;49.208;12.080;2022-09-25T08:28:14;12.90;99.90
39079;DHT22;24829;49.208;12.080;2022-09-25T08:30:39;13.00;99.90
39079;DHT22;24829;49.208;12.080;2022-09-25T08:33:11;13.00;99.90
39079;DHT22;24829;49.208;12.080;2022-09-25T08:35:40;13.10;99.90
39079;DHT22;24829;49.208;12.080;2022-09-25T08:38:07;13.10;99.90
39079;DHT22;24829;49.208;12.080;2022-09-25T08:40:36;13.10;99.90
39079;DHT22;24829;49.208;12.080;2022-09-25T08:43:03;13.10;99.90
39079;DHT22;24829;49.208;12.080;2022-09-25T08:45:35;13.10;99.90
39079;DHT22;24829;49.208;12.080;2022-09-25T08:48:29;13.10;99.90
39079;DHT22;24829;49.208;12.080;2022-09-25T08:51:14;13.10;99.90
39079;DHT22;24829;49.208;12.080;2022-09-25T08:53:40;13.20;99.90
39079;DHT22;24829;49.208;12.080;2022-09-25T08:56:12;13.20;99.90
39079;DHT22;24829;49.208;12.080;2022-09-25T08:58:56;13.20;99.90
39079;DHT22;24829;49.208;12.080;2022-09-25T09:01:27;13.20;99.90
39079;DHT22;24829;49.208;12.080;2022-09-25T09:04:00;13.30;99.90
39079;DHT22;24829;49.208;12.080;2022-09-25T09:06:28;13.30;99.90
39079;DHT22;24829;49.208;12.080;2022-09-25T09:09:10;13.40;99.90
39079;DHT22;24829;49.208;12.080;2022-09-25T09:11:42;13.40;99.90
39079;DHT22;24829;49.208;12.080;2022-09-25T09:14:13;13.40;99.90
39079;DHT22;24829;49.208;12.080;2022-09-25T09:16:44;13.30;99.90
39079;DHT22;24829;49.208;12.080;2022-09-25T09:19:11;13.30;99.90
39079;DHT22;24829;49.208;12.080;2022-09-25T09:21:44;13.30;99.90
39079;DHT22;24829;49.208;12.080;2022-09-25T09:24:32;13.30;99.90
39079;DHT22;24829;49.208;12.080;2022-09-25T09:27:30;13.40;99.90
39079;DHT22;24829;49.208;12.080;2022-09-25T09:30:59;13.40;99.90
39079;DHT22;24829;49.208;12.080;2022-09-25T09:36:18;13.40;99.90
39079;DHT22;24829;49.208;12.080;2022-09-25T09:44:32;13.60;99.90
39079;DHT22;24829;49.208;12.080;2022-09-25T09:47:15;13.60;99.90
39079;DHT22;24829;49.208;12.080;2022-09-25T09:49:56;13.80;99.90
39079;DHT22;24829;49.208;12.080;2022-09-25T09:52:28;13.90;99.90
39079;DHT22;24829;49.208;12.080;2022-09-25T09:55:01;13.90;99.90
39079;DHT22;24829;49.208;12.080;2022-09-25T09:57:32;14.00;99.90
39079;DHT22;24829;49.208;12.080;2022-09-25T10:00:05;14.00;99.90
39079;DHT22;24829;49.208;12.080;2022-09-25T10:02:43;14.10;99.90
39079;DHT22;24829;49.208;12.080;2022-09-25T10:07:50;14.30;99.90
39079;DHT22;24829;49.208;12.080;2022-09-25T10:10:17;14.30;99.90
39079;DHT22;24829;49.208;12.080;2022-09-25T10:12:49;14.30;99.90
39079;DHT22;24829;49.208;12.080;2022-09-25T10:17:44;14.40;99.90
39079;DHT22;24829;49.208;12.080;2022-09-25T10:25:56;14.50;99.90
39079;DHT22;24829;49.208;12.080;2022-09-25T10:28:26;14.60;99.90
39079;DHT22;24829;49.208;12.080;2022-09-25T10:30:53;14.60;99.90
39079;DHT22;24829;49.208;12.080;2022-09-25T10:33:21;14.70;99.90
39079;DHT22;24829;49.208;12.080;2022-09-25T10:35:48;14.70;99.90
39079;DHT22;24829;49.208;12.080;2022-09-25T10:40:43;14.70;99.90
39079;DHT22;24829;49.208;12.080;2022-09-25T10:43:18;14.70;99.90
39079;DHT22;24829;49.208;12.080;2022-09-25T10:45:49;14.70;99.90
39079;DHT22;24829;49.208;12.080;2022-09-25T10:48:33;14.70;99.90
39079;DHT22;24829;49.208;12.080;2022-09-25T10:51:18;14.70;99.90
39079;DHT22;24829;49.208;12.080;2022-09-25T10:53:47;14.70;99.90
39079;DHT22;24829;49.208;12.080;2022-09-25T10:56:17;14.80;99.90
39079;DHT22;24829;49.208;12.080;2022-09-25T10:58:55;14.70;99.90
39079;DHT22;24829;49.208;12.080;2022-09-25T11:01:31;14.70;99.90
39079;DHT22;24829;49.208;12.080;2022-09-25T11:03:59;14.70;99.90
39079;DHT22;24829;49.208;12.080;2022-09-25T11:06:28;14.60;99.90
39079;DHT22;24829;49.208;12.080;2022-09-25T11:09:12;14.60;99.90
39079;DHT22;24829;49.208;12.080;2022-09-25T11:11:39;14.70;99.90
39079;DHT22;24829;49.208;12.080;2022-09-25T11:14:15;14.80;99.90
39079;DHT22;24829;49.208;12.080;2022-09-25T11:16:52;14.90;99.90
39079;DHT22;24829;49.208;12.080;2022-09-25T11:22:21;15.40;99.90
39079;DHT22;24829;49.208;12.080;2022-09-25T11:24:54;15.50;99.90
39079;DHT22;24829;49.208;12.080;2022-09-25T11:27:42;15.70;99.90
39079;DHT22;24829;49.208;12.080;2022-09-25T11:30:20;15.80;99.90
39079;DHT22;24829;49.208;12.080;2022-09-25T11:38:36;15.70;99.90
39079;DHT22;24829;49.208;12.080;2022-09-25T11:41:26;15.70;99.90
39079;DHT22;24829;49.208;12.080;2022-09-25T11:46:40;15.70;99.90
39079;DHT22;24829;49.208;12.080;2022-09-25T11:49:25;15.70;99.90
39079;DHT22;24829;49.208;12.080;2022-09-25T12:03:26;15.50;99.90
39079;DHT22;24829;49.208;12.080;2022-09-25T12:09:31;15.60;99.90
39079;DHT22;24829;49.208;12.080;2022-09-25T12:14:49;15.60;99.90
39079;DHT22;24829;49.208;12.080;2022-09-25T12:31:21;15.60;99.90
39079;DHT22;24829;49.208;12.080;2022-09-25T12:37:24;15.70;99.90
39079;DHT22;24829;49.208;12.080;2022-09-25T12:39:55;15.80;99.90
39079;DHT22;24829;49.208;12.080;2022-09-25T12:42:51;15.90;99.90
39079;DHT22;24829;49.208;12.080;2022-09-25T12:50:37;15.80;99.90
39079;DHT22;24829;49.208;12.080;2022-09-25T12:53:25;15.80;99.90
39079;DHT22;24829;49.208;12.080;2022-09-25T12:55:57;15.80;99.90
39079;DHT22;24829;49.208;12.080;2022-09-25T13:01:28;15.90;99.90
39079;DHT22;24829;49.208;12.080;2022-09-25T13:04:16;15.90;99.90
39079;DHT22;24829;49.208;12.080;2022-09-25T13:12:01;15.90;99.90
39079;DHT22;24829;49.208;12.080;2022-09-25T13:14:35;15.90;99.90
39079;DHT22;24829;49.208;12.080;2022-09-25T13:17:04;16.10;99.90
39079;DHT22;24829;49.208;12.080;2022-09-25T13:19:31;16.20;99.90
39079;DHT22;24829;49.208;12.080;2022-09-25T13:22:02;16.20;99.90
39079;DHT22;24829;49.208;12.080;2022-09-25T13:24:29;16.20;99.90
39079;DHT22;24829;49.208;12.080;2022-09-25T13:26:58;16.10;99.90
39079;DHT22;24829;49.208;12.080;2022-09-25T13:29:33;16.00;99.90
39079;DHT22;24829;49.208;12.080;2022-09-25T13:32:16;15.90;99.90
39079;DHT22;24829;49.208;12.080;2022-09-25T13:34:43;15.70;99.90
39079;DHT22;24829;49.208;12.080;2022-09-25T13:37:11;15.60;99.90
39079;DHT22;24829;49.208;12.080;2022-09-25T13:39:38;15.50;99.90
39079;DHT22;24829;49.208;12.080;2022-09-25T13:42:30;15.40;99.90
39079;DHT22;24829;49.208;12.080;2022-09-25T13:45:00;15.30;99.90
39079;DHT22;24829;49.208;12.080;2022-09-25T13:53:02;15.40;99.90
39079;DHT22;24829;49.208;12.080;2022-09-25T13:58:22;15.50;99.90
39079;DHT22;24829;49.208;12.080;2022-09-25T14:03:47;15.80;99.90
39079;DHT22;24829;49.208;12.080;2022-09-25T14:06:28;15.80;99.90
39079;DHT22;24829;49.208;12.080;2022-09-25T14:09:04;15.90;99.90
39079;DHT22;24829;49.208;12.080;2022-09-25T14:11:33;15.80;99.90
39079;DHT22;24829;49.208;12.080;2022-09-25T14:14:03;15.70;99.90
39079;DHT22;24829;49.208;12.080;2022-09-25T14:16:33;15.60;99.90
39079;DHT22;24829;49.208;12.080;2022-09-25T14:19:01;15.60;99.90
39079;DHT22;24829;49.208;12.080;2022-09-25T14:21:28;15.50;99.90
39079;DHT22;24829;49.208;12.080;2022-09-25T14:23:56;15.50;99.90
39079;DHT22;24829;49.208;12.080;2022-09-25T14:26:28;15.40;99.90
39079;DHT22;24829;49.208;12.080;2022-09-25T14:28:55;15.50;99.90
39079;DHT22;24829;49.208;12.080;2022-09-25T14:37:24;15.40;99.90
39079;DHT22;24829;49.208;12.080;2022-09-25T14:45:39;15.50;99.90
39079;DHT22;24829;49.208;12.080;2022-09-25T14:48:23;15.50;99.90
39079;DHT22;24829;49.208;12.080;2022-09-25T14:50:53;15.60;99.90
39079;DHT22;24829;49.208;12.080;2022-09-25T14:53:30;15.50;99.90
39079;DHT22;24829;49.208;12.080;2022-09-25T14:55:57;15.50;99.90
39079;DHT22;24829;49.208;12.080;2022-09-25T14:58:28;15.50;99.90
39079;DHT22;24829;49.208;12.080;2022-09-25T15:01:02;15.50;99.90
39079;DHT22;24829;49.208;12.080;2022-09-25T15:03:30;15.40;99.90
39079;DHT22;24829;49.208;12.080;2022-09-25T15:05:59;15.40;99.90
39079;DHT22;24829;49.208;12.080;2022-09-25T15:08:38;15.40;99.90
39079;DHT22;24829;49.208;12.080;2022-09-25T15:11:13;15.40;99.90
39079;DHT22;24829;49.208;12.080;2022-09-25T15:13:40;15.30;99.90
39079;DHT22;24829;49.208;12.080;2022-09-25T15:16:12;15.30;99.90
39079;DHT22;24829;49.208;12.080;2022-09-25T15:18:58;15.30;99.90
39079;DHT22;24829;49.208;12.080;2022-09-25T15:21:28;15.30;99.90
39079;DHT22;24829;49.208;12.080;2022-09-25T15:23:58;15.30;99.90
39079;DHT22;24829;49.208;12.080;2022-09-25T15:26:24;15.20;99.90
39079;DHT22;24829;49.208;12.080;2022-09-25T15:28:52;15.20;99.90
39079;DHT22;24829;49.208;12.080;2022-09-25T15:31:18;15.20;99.90
39079;DHT22;24829;49.208;12.080;2022-09-25T15:33:43;15.20;99.90
39079;DHT22;24829;49.208;12.080;2022-09-25T15:36:19;15.20;99.90
39079;DHT22;24829;49.208;12.080;2022-09-25T15:38:55;15.10;99.90
39079;DHT22;24829;49.208;12.080;2022-09-25T15:41:21;15.10;99.90
39079;DHT22;24829;49.208;12.080;2022-09-25T15:43:50;15.10;99.90
39079;DHT22;24829;49.208;12.080;2022-09-25T15:46:34;15.00;99.90
39079;DHT22;24829;49.208;12.080;2022-09-25T15:49:01;15.00;99.90
39079;DHT22;24829;49.208;12.080;2022-09-25T15:51:30;15.00;99.90
39079;DHT22;24829;49.208;12.080;2022-09-25T15:54:00;15.00;99.90
39079;DHT22;24829;49.208;12.080;2022-09-25T15:56:28;15.00;99.90
39079;DHT22;24829;49.208;12.080;2022-09-25T15:59:13;14.90;99.90
39079;DHT22;24829;49.208;12.080;2022-09-25T16:01:41;14.90;99.90
39079;DHT22;24829;49.208;12.080;2022-09-25T16:04:26;14.90;99.90
39079;DHT22;24829;49.208;12.080;2022-09-25T16:09:56;14.80;99.90
39079;DHT22;24829;49.208;12.080;2022-09-25T16:17:53;14.70;99.90
39079;DHT22;24829;49.208;12.080;2022-09-25T16:22:50;14.70;99.90
39079;DHT22;24829;49.208;12.080;2022-09-25T16:25:22;14.70;99.90
39079;DHT22;24829;49.208;12.080;2022-09-25T16:27:51;14.80;99.90
39079;DHT22;24829;49.208;12.080;2022-09-25T16:30:20;14.80;99.90
39079;DHT22;24829;49.208;12.080;2022-09-25T16:32:48;14.90;99.90
39079;DHT22;24829;49.208;12.080;2022-09-25T16:35:34;14.90;99.90
39079;DHT22;24829;49.208;12.080;2022-09-25T16:38:01;14.90;99.90
39079;DHT22;24829;49.208;12.080;2022-09-25T16:40:29;14.80;99.90
39079;DHT22;24829;49.208;12.080;2022-09-25T16:42:59;14.80;99.90
39079;DHT22;24829;49.208;12.080;2022-09-25T16:45:33;14.60;99.90
39079;DHT22;24829;49.208;12.080;2022-09-25T16:48:34;14.50;99.90
39079;DHT22;24829;49.208;12.080;2022-09-25T16:51:02;14.40;99.90
39079;DHT22;24829;49.208;12.080;2022-09-25T16:53:28;14.30;99.90
39079;DHT22;24829;49.208;12.080;2022-09-25T16:55:54;14.20;99.90
39079;DHT22;24829;49.208;12.080;2022-09-25T16:58:22;14.10;99.90
39079;DHT22;24829;49.208;12.080;2022-09-25T17:00:48;14.10;99.90
39079;DHT22;24829;49.208;12.080;2022-09-25T17:03:14;14.00;99.90
39079;DHT22;24829;49.208;12.080;2022-09-25T17:05:40;14.00;99.90
39079;DHT22;24829;49.208;12.080;2022-09-25T17:08:18;13.90;99.90
39079;DHT22;24829;49.208;12.080;2022-09-25T17:10:45;13.90;99.90
39079;DHT22;24829;49.208;12.080;2022-09-25T17:13:14;13.80;99.90
39079;DHT22;24829;49.208;12.080;2022-09-25T17:15:41;13.80;99.90
39079;DHT22;24829;49.208;12.080;2022-09-25T17:18:14;13.70;99.90
39079;DHT22;24829;49.208;12.080;2022-09-25T17:20:40;13.70;99.90
39079;DHT22;24829;49.208;12.080;2022-09-25T17:23:07;13.60;99.90
39079;DHT22;24829;49.208;12.080;2022-09-25T17:25:47;13.60;99.90
39079;DHT22;24829;49.208;12.080;2022-09-25T17:28:14;13.60;99.90
39079;DHT22;24829;49.208;12.080;2022-09-25T17:30:42;13.50;99.90
39079;DHT22;24829;49.208;12.080;2022-09-25T17:33:19;13.40;99.90
39079;DHT22;24829;49.208;12.080;2022-09-25T17:36:02;13.30;99.90
39079;DHT22;24829;49.208;12.080;2022-09-25T17:38:29;13.20;99.90
39079;DHT22;24829;49.208;12.080;2022-09-25T17:40:57;13.20;99.90
39079;DHT22;24829;49.208;12.080;2022-09-25T17:43:24;13.10;99.90
39079;DHT22;24829;49.208;12.080;2022-09-25T17:45:55;13.10;99.90
39079;DHT22;24829;49.208;12.080;2022-09-25T17:48:26;13.00;99.90
39079;DHT22;24829;49.208;12.080;2022-09-25T17:50:57;13.00;99.90
39079;DHT22;24829;49.208;12.080;2022-09-25T17:53:26;13.00;99.90
39079;DHT22;24829;49.208;12.080;2022-09-25T17:55:54;13.10;99.90